Flight Track Log - Related Links

Times and Time Zones

All times are in EDT time to prevent confusion due to time zone crossing. See the TAM3600 flight status page for this flight to view local times or setup timezone preferences in your user account.

Time Position Orientation Groundspeed Altitude Reporting Facility
EDT Latitude Longitude Course Direction KTS MPH feet Rate Location/Type
Thu 08:25:39 PM -21.9740 -45.7450 19° North 444 511 33,300  Level FlightAware ADS-B
Thu 08:26:33 PM -21.8750 -45.7080 19° North 442 509 33,900 623 Climbing FlightAware ADS-B
Thu 08:27:25 PM -21.7970 -45.6780 20° North 446 513 34,400 786 Climbing FlightAware ADS-B
Thu 08:27:57 PM -21.7030 -45.6430 19° North 443 510 35,000 545 Climbing FlightAware ADS-B
Thu 08:28:31 PM -21.6080 -45.6070 19° North 459 528 35,000  Level FlightAware ADS-B
Thu 08:29:10 PM -21.5290 -45.5760 20° North 471 542 35,000  Level FlightAware ADS-B
Thu 08:29:41 PM -21.4700 -45.5450 26° Northeast 473 544 35,000  Level FlightAware ADS-B
Thu 08:30:15 PM -21.4300 -45.5190 31° Northeast 478 550 35,000  Level FlightAware ADS-B
Thu 08:30:55 PM -21.3360 -45.4540 33° Northeast 479 551 35,000  Level FlightAware ADS-B
Thu 08:31:35 PM -21.2570 -45.4010 32° Northeast 479 551 35,000 237 Level FlightAware ADS-B
Thu 08:32:11 PM -21.1890 -45.3540 33° Northeast 478 550 35,300 500 Climbing FlightAware ADS-B
Thu 08:32:47 PM -21.1210 -45.3050 34° Northeast 485 558 35,600 676 Climbing FlightAware ADS-B
Thu 08:33:22 PM -21.0640 -45.2470 44° Northeast 486 559 36,100 643 Climbing FlightAware ADS-B
Thu 08:34:11 PM -20.9880 -45.1670 45° Northeast 490 564 36,500 506 Climbing FlightAware ADS-B
Thu 08:34:45 PM -20.9270 -45.1050 44° Northeast 490 564 36,800 435 Climbing FlightAware ADS-B
Thu 08:35:20 PM -20.8710 -45.0470 44° Northeast 495 570 37,000 171 Climbing FlightAware ADS-B
Thu 08:35:55 PM -20.8150 -44.9890 44° Northeast 490 564 37,000  Level FlightAware ADS-B
Thu 08:36:30 PM -20.7560 -44.9280 44° Northeast 488 562 37,000  Level FlightAware ADS-B
Thu 08:37:05 PM -20.6990 -44.8700 44° Northeast 485 558 37,000  Level FlightAware ADS-B
Thu 08:37:45 PM -20.6340 -44.8030 44° Northeast 489 563 37,000  Level FlightAware ADS-B
Thu 08:38:20 PM -20.5770 -44.7450 44° Northeast 491 565 37,000 80 Level FlightAware ADS-B
Thu 08:39:00 PM -20.5110 -44.6780 44° Northeast 492 566 37,100 86 Climbing FlightAware ADS-B
Thu 08:39:30 PM -20.4630 -44.6280 44° Northeast 492 566 37,100 -92 Level FlightAware ADS-B
Thu 08:40:05 PM -20.4030 -44.5680 43° Northeast 491 565 37,000 -86 Descending FlightAware ADS-B
Thu 08:40:40 PM -20.3500 -44.5130 44° Northeast 490 564 37,000  Level FlightAware ADS-B
Thu 08:41:15 PM -20.2910 -44.4530 44° Northeast 491 565 37,000  Level FlightAware ADS-B
Thu 08:41:50 PM -20.2320 -44.3930 44° Northeast 493 567 37,000  Level FlightAware ADS-B
Thu 08:42:30 PM -20.1650 -44.3250 44° Northeast 495 570 37,000  Level FlightAware ADS-B
Thu 08:43:00 PM -20.1160 -44.2750 44° Northeast 495 570 37,000  Level FlightAware ADS-B
Thu 08:43:40 PM -20.0520 -44.2100 44° Northeast 494 568 37,000  Level FlightAware ADS-B
Thu 08:44:10 PM -19.9990 -44.1570 43° Northeast 495 570 37,000  Level FlightAware ADS-B
Thu 08:44:46 PM -19.9410 -44.0980 44° Northeast 494 568 37,000  Level FlightAware ADS-B
Thu 08:45:20 PM -19.8860 -44.0410 44° Northeast 495 570 37,000  Level FlightAware ADS-B
Thu 08:45:55 PM -19.8300 -43.9860 43° Northeast 496 571 37,000  Level FlightAware ADS-B
Thu 08:46:34 PM -19.7600 -43.9150 44° Northeast 497 572 37,000  Level FlightAware ADS-B
Thu 08:47:06 PM -19.7050 -43.8600 43° Northeast 499 574 37,000  Level FlightAware ADS-B
Thu 08:47:42 PM -19.6450 -43.7990 44° Northeast 498 573 37,000  Level FlightAware ADS-B
Thu 08:48:20 PM -19.5820 -43.7360 43° Northeast 495 570 37,000  Level FlightAware ADS-B
Thu 08:48:52 PM -19.5300 -43.6840 43° Northeast 494 568 37,000  Level FlightAware ADS-B
Thu 08:49:25 PM -19.4780 -43.6310 44° Northeast 490 564 37,000  Level FlightAware ADS-B
Thu 08:49:59 PM -19.4180 -43.5710 43° Northeast 489 563 37,000  Level FlightAware ADS-B
Thu 08:50:50 PM -19.3350 -43.4870 44° Northeast 488 562 37,000  Level FlightAware ADS-B
Thu 08:51:25 PM -19.2800 -43.4330 43° Northeast 491 565 37,000  Level FlightAware ADS-B
Thu 08:52:00 PM -19.2200 -43.3730 43° Northeast 492 566 37,000  Level FlightAware ADS-B
Thu 08:52:35 PM -19.1630 -43.3160 43° Northeast 491 565 37,000  Level FlightAware ADS-B
Thu 08:53:10 PM -19.1050 -43.2580 43° Northeast 490 564 37,000  Level FlightAware ADS-B
Thu 08:53:45 PM -19.0450 -43.1990 43° Northeast 489 563 37,000  Level FlightAware ADS-B
Thu 08:54:20 PM -18.9900 -43.1440 43° Northeast 488 562 37,000  Level FlightAware ADS-B
Thu 08:54:55 PM -18.9310 -43.0840 44° Northeast 486 559 37,000  Level FlightAware ADS-B
Thu 08:55:30 PM -18.8750 -43.0300 42° Northeast 483 556 37,000  Level FlightAware ADS-B
Thu 08:56:06 PM -18.8190 -42.9740 43° Northeast 482 555 37,000  Level FlightAware ADS-B
Thu 08:56:40 PM -18.7600 -42.9160 43° Northeast 482 555 37,000  Level FlightAware ADS-B
Thu 08:57:15 PM -18.7070 -42.8630 43° Northeast 483 556 37,000  Level FlightAware ADS-B
Thu 08:57:50 PM -18.6460 -42.8030 43° Northeast 483 556 37,000  Level FlightAware ADS-B
Thu 08:58:25 PM -18.5900 -42.7470 43° Northeast 484 557 37,000  Level FlightAware ADS-B
Thu 08:59:00 PM -18.5320 -42.6900 43° Northeast 486 559 37,000  Level FlightAware ADS-B
Thu 08:59:35 PM -18.4730 -42.6320 43° Northeast 485 558 37,000  Level FlightAware ADS-B
Thu 09:00:10 PM -18.4170 -42.5760 43° Northeast 483 556 37,000  Level FlightAware ADS-B
Thu 09:00:45 PM -18.3590 -42.5190 43° Northeast 482 555 37,000  Level FlightAware ADS-B
Thu 09:01:20 PM -18.3020 -42.4630 43° Northeast 481 554 37,000  Level FlightAware ADS-B
Thu 09:01:55 PM -18.2460 -42.4080 43° Northeast 481 554 37,000  Level FlightAware ADS-B
Thu 09:02:30 PM -18.1880 -42.3510 43° Northeast 483 556 37,000  Level FlightAware ADS-B
Thu 09:03:05 PM -18.1310 -42.2950 43° Northeast 485 558 37,000  Level FlightAware ADS-B
Thu 09:03:40 PM -18.0730 -42.2390 43° Northeast 484 557 37,000  Level FlightAware ADS-B
Thu 09:04:15 PM -18.0190 -42.1860 43° Northeast 485 558 37,000  Level FlightAware ADS-B
Thu 09:04:50 PM -17.9580 -42.1260 43° Northeast 486 559 37,000  Level FlightAware ADS-B
Thu 09:05:25 PM -17.9020 -42.0710 43° Northeast 484 557 37,000  Level FlightAware ADS-B
Thu 09:06:00 PM -17.8440 -42.0150 43° Northeast 483 556 37,000  Level FlightAware ADS-B
Thu 09:06:35 PM -17.7860 -41.9580 43° Northeast 481 554 37,000  Level FlightAware ADS-B
Thu 09:07:10 PM -17.7290 -41.9020 43° Northeast 481 554 37,000  Level FlightAware ADS-B
Thu 09:07:45 PM -17.6740 -41.8490 43° Northeast 480 552 37,000  Level FlightAware ADS-B
Thu 09:08:22 PM -17.6200 -41.7970 43° Northeast 481 554 37,000  Level FlightAware ADS-B
Thu 09:09:00 PM -17.5510 -41.7300 43° Northeast 481 554 37,000  Level FlightAware ADS-B
Thu 09:09:40 PM -17.4870 -41.6670 43° Northeast 481 554 37,000  Level FlightAware ADS-B
Thu 09:10:22 PM -17.4260 -41.6080 43° Northeast 481 554 37,000  Level FlightAware ADS-B
Thu 09:11:21 PM -17.3290 -41.5140 43° Northeast 481 554 37,000  Level FlightAware ADS-B
Thu 09:11:58 PM -17.2780 -41.4640 43° Northeast 481 554 37,000  Level FlightAware ADS-B
Thu 09:12:33 PM -17.2290 -41.4160 43° Northeast 481 554 37,000  Level FlightAware ADS-B
Thu 09:13:09 PM -17.1790 -41.3680 43° Northeast 481 554 37,000  Level FlightAware ADS-B
Thu 09:13:45 PM -17.1300 -41.3190 44° Northeast 481 554 37,000  Level FlightAware ADS-B
Thu 09:14:21 PM -17.0800 -41.2710 43° Northeast 481 554 37,000  Level FlightAware ADS-B
Thu 09:15:02 PM -16.9300 -41.1960 26° Northeast 476 548 37,000  Level FlightAware ADS-B
Thu 09:15:34 PM -16.8690 -41.1560 32° Northeast 474 545 37,000  Level FlightAware ADS-B
Thu 09:16:19 PM -16.7940 -41.1070 32° Northeast 473 544 37,000  Level FlightAware ADS-B
Thu 09:16:54 PM -16.7230 -41.0590 33° Northeast 471 542 37,000  Level FlightAware ADS-B
Thu 09:17:29 PM -16.6580 -41.0160 32° Northeast 469 540 37,000  Level FlightAware ADS-B
Thu 09:18:01 PM -16.5980 -40.9760 33° Northeast 469 540 37,000  Level FlightAware ADS-B
Thu 09:18:36 PM -16.5350 -40.9340 33° Northeast 469 540 37,000  Level FlightAware ADS-B
Thu 09:19:11 PM -16.4700 -40.8910 32° Northeast 471 542 37,000  Level FlightAware ADS-B
Thu 09:19:45 PM -16.4060 -40.8480 33° Northeast 473 544 37,000  Level FlightAware ADS-B
Thu 09:20:22 PM -16.3400 -40.8040 33° Northeast 474 545 37,000  Level FlightAware ADS-B
Thu 09:20:59 PM -16.2710 -40.7590 32° Northeast 475 547 37,000  Level FlightAware ADS-B
Thu 09:21:35 PM -16.2020 -40.7130 33° Northeast 477 549 37,000  Level FlightAware ADS-B
Thu 09:22:08 PM -16.1410 -40.6720 33° Northeast 475 547 37,000 88 Level FlightAware ADS-B
Thu 09:22:43 PM -16.0770 -40.6300 32° Northeast 473 544 37,100  Climbing FlightAware ADS-B
Thu 09:23:19 PM -16.0110 -40.5860 33° Northeast 470 541 37,000 -88 Descending FlightAware ADS-B
Thu 09:23:51 PM -15.9530 -40.5480 32° Northeast 467 537 37,000  Level FlightAware ADS-B
Thu 09:24:27 PM -15.8860 -40.5040 32° Northeast 465 535 37,000  Level FlightAware ADS-B
Thu 09:25:04 PM -15.8190 -40.4590 33° Northeast 465 535 37,000  Level FlightAware ADS-B
Thu 09:25:40 PM -15.7530 -40.4160 32° Northeast 466 536 37,000  Level FlightAware ADS-B
Thu 09:26:11 PM -15.6970 -40.3790 32° Northeast 468 539 37,000  Level FlightAware ADS-B
Thu 09:26:48 PM -15.6290 -40.3340 33° Northeast 469 540 37,000  Level FlightAware ADS-B
Thu 09:27:24 PM -15.5640 -40.2910 33° Northeast 472 543 37,000  Level FlightAware ADS-B
Thu 09:27:59 PM -15.4990 -40.2480 33° Northeast 473 544 37,000  Level FlightAware ADS-B
Thu 09:28:35 PM -15.4310 -40.2030 33° Northeast 475 547 37,000  Level FlightAware ADS-B
Thu 09:29:17 PM -15.3630 -40.1590 32° Northeast 475 547 37,000  Level FlightAware ADS-B
Thu 09:30:10 PM -15.2600 -40.0900 33° Northeast 477 549 37,000  Level FlightAware ADS-B
Thu 09:30:44 PM -15.1940 -40.0450 33° Northeast 475 547 37,000  Level FlightAware ADS-B
Thu 09:31:34 PM -15.1170 -39.9930 33° Northeast 477 549 37,000  Level FlightAware ADS-B
Thu 09:32:06 PM -15.0530 -39.9510 32° Northeast 472 543 37,000  Level FlightAware ADS-B
Thu 09:32:42 PM -14.9820 -39.9040 33° Northeast 471 542 37,000  Level FlightAware ADS-B
Thu 09:33:18 PM -14.9160 -39.8610 32° Northeast 470 541 37,000  Level FlightAware ADS-B
Thu 09:33:54 PM -14.8630 -39.8250 33° Northeast 470 541 37,000  Level FlightAware ADS-B
Thu 09:34:31 PM -14.8050 -39.7870 32° Northeast 470 541 37,000  Level FlightAware ADS-B
Thu 09:35:07 PM -14.7490 -39.7490 33° Northeast 470 541 37,000  Level FlightAware ADS-B
Thu 09:35:43 PM -14.6940 -39.7120 33° Northeast 470 541 37,000  Level FlightAware ADS-B
Thu 09:36:19 PM -14.6380 -39.6740 33° Northeast 470 541 37,000  Level FlightAware ADS-B
Thu 09:36:55 PM -14.5820 -39.6370 33° Northeast 470 541 37,000  Level FlightAware ADS-B
Thu 09:37:31 PM -14.5260 -39.5990 33° Northeast 470 541 37,000  Level FlightAware ADS-B
Thu 09:38:07 PM -14.4700 -39.5620 33° Northeast 470 541 37,000  Level FlightAware ADS-B
Thu 09:38:43 PM -14.4150 -39.5240 34° Northeast 470 541 37,000  Level FlightAware ADS-B
Thu 09:39:19 PM -14.3590 -39.4870 33° Northeast 470 541 37,000  Level FlightAware ADS-B
Thu 09:39:53 PM -14.3060 -39.4520 33° Northeast 470 541 37,000  Level FlightAware ADS-B
Thu 09:40:28 PM -14.2520 -39.4150 34° Northeast 470 541 37,000  Level FlightAware ADS-B
Thu 09:41:04 PM -14.1960 -39.3780 33° Northeast 470 541 37,000  Level FlightAware ADS-B
Thu 09:41:40 PM -14.1400 -39.3410 33° Northeast 470 541 37,000  Level FlightAware ADS-B
Thu 09:42:16 PM -14.0840 -39.3030 33° Northeast 470 541 37,000  Level FlightAware ADS-B
Thu 09:42:52 PM -14.0290 -39.2660 33° Northeast 470 541 37,000 -2,963 Level FlightAware ADS-B
Thu 09:45:00 PM -13.8649 -39.1281 39° Northeast  Level Estimated
Thu 09:46:00 PM -13.7880 -39.0635 39° Northeast  Level Estimated
Thu 09:47:00 PM -13.7111 -38.9989 39° Northeast  Level Estimated
Thu 09:48:00 PM -13.6341 -38.9344 39° Northeast  Level Estimated
Thu 09:49:00 PM -13.5571 -38.8699 39° Northeast  Level Estimated
Thu 09:50:00 PM -13.4801 -38.8055 39° Northeast  Level Estimated
Thu 09:51:00 PM -13.4031 -38.7411 39° Northeast  Level Estimated
Thu 09:52:00 PM -13.3260 -38.6768 39° Northeast  Level Estimated
Thu 09:53:00 PM -13.2490 -38.6125 39° Northeast  Level Estimated
Thu 09:53:06 PM -13.1150 -38.6320 39° Northeast 243 280 4,900  Level FlightAware ADS-B
Thu 09:53:32 PM -13.0950 -38.6170 36° Northeast 243 280 4,900 -453 Level FlightAware ADS-B
Thu 09:53:59 PM -13.0730 -38.5990 39° Northeast 241 277 4,500 -1,200 Descending FlightAware ADS-B
Thu 09:54:22 PM -13.0480 -38.5770 41° Northeast 235 270 3,900 -1,371 Descending FlightAware ADS-B
Thu 09:54:34 PM -13.0370 -38.5690 35° Northeast 231 266 3,700 -1,059 Descending FlightAware ADS-B
Thu 09:54:56 PM -13.0190 -38.5540 39° Northeast 223 257 3,300 -1,029 Descending FlightAware ADS-B
Thu 09:55:09 PM -13.0090 -38.5450 41° Northeast 218 251 3,100 -833 Descending FlightAware ADS-B
Thu 09:55:32 PM -12.9910 -38.5300 39° Northeast 211 243 2,800 -857 Descending FlightAware ADS-B
Thu 09:55:44 PM -12.9820 -38.5230 37° Northeast 205 236 2,600 -563 Descending FlightAware ADS-B
Thu 09:56:04 PM -12.9680 -38.5110 40° Northeast 194 223 2,500 -500 Descending FlightAware ADS-B
Thu 09:56:20 PM -12.9580 -38.5020 41° Northeast 186 214 2,300 -500 Descending FlightAware ADS-B
Thu 09:56:40 PM -12.9450 -38.4900 42° Northeast 178 205 2,200 -444 Descending FlightAware ADS-B
Thu 09:56:47 PM -12.9420 -38.4850 58° Northeast 176 203 2,100 -375 Descending FlightAware ADS-B
Thu 09:56:56 PM -12.9400 -38.4770 76° East 167 192 2,100 -207 Level FlightAware ADS-B
Thu 09:57:16 PM -12.9370 -38.4630 78° East 149 171 2,000 -300 Descending FlightAware ADS-B
Thu 09:57:36 PM -12.9340 -38.4500 77° East 131 151 1,900 -286 Descending FlightAware ADS-B
Thu 09:57:58 PM -12.9320 -38.4370 81° East 130 150 1,800 -353 Descending FlightAware ADS-B
Thu 09:58:10 PM -12.9300 -38.4300 74° East 129 148 1,700 -667 Descending FlightAware ADS-B
Thu 09:58:34 PM -12.9270 -38.4150 78° East 130 150 1,400 -682 Descending FlightAware ADS-B
Thu 09:58:54 PM -12.9250 -38.4030 80° East 129 148 1,200 -600 Descending FlightAware ADS-B
Thu 09:59:14 PM -12.9220 -38.3920 74° East 127 146 1,000 -714 Descending FlightAware ADS-B
Thu 09:59:36 PM -12.9200 -38.3780 82° East 128 147 700 -714 Descending FlightAware ADS-B
Thu 09:59:56 PM -12.9170 -38.3660 76° East 128 147 500 -667 Descending FlightAware ADS-B
Thu 10:00:12 PM -12.9150 -38.3560 78° East 128 147 300 -667 Descending FlightAware ADS-B
Thu 10:00:32 PM -12.9130 -38.3450 79° East 127 146 100 -600 Descending FlightAware ADS-B
Thu 10:00:52 PM -12.9110 -38.3330 80° East 125 144 -300 Descending FlightAware ADS-B

Login

Don't have an account? Register now (free) for customized features, flight alerts, and more!